createdAt,value
2018-08-29T00:01:56.771Z,70.20
2018-08-29T00:07:31.269Z,70.40
2018-08-29T00:13:00.524Z,70.40
2018-08-29T00:18:29.904Z,70.70
2018-08-29T00:23:59.155Z,70.80
2018-08-29T00:29:28.523Z,71.00
2018-08-29T00:34:57.772Z,71.20
2018-08-29T00:40:27.035Z,71.50
2018-08-29T00:45:56.283Z,71.70
2018-08-29T00:51:25.581Z,71.70
2018-08-29T00:56:54.820Z,72.00
2018-08-29T01:02:24.067Z,72.30
2018-08-29T01:07:53.293Z,72.40
2018-08-29T01:13:22.539Z,72.50
2018-08-29T01:18:51.872Z,72.60
2018-08-29T01:24:21.275Z,72.70
2018-08-29T01:29:50.596Z,72.80
2018-08-29T01:35:20.277Z,72.90
2018-08-29T01:40:49.506Z,73.10
2018-08-29T01:46:18.752Z,73.20
2018-08-29T01:51:47.950Z,73.30
2018-08-29T01:57:17.197Z,73.40
2018-08-29T02:02:46.585Z,73.40
2018-08-29T02:08:15.804Z,73.30
2018-08-29T02:13:45.044Z,73.60
2018-08-29T02:19:14.287Z,73.60
2018-08-29T02:24:43.692Z,73.90
2018-08-29T02:30:13.016Z,73.80
2018-08-29T02:35:42.227Z,74.30
2018-08-29T02:41:11.644Z,74.50
2018-08-29T02:46:40.915Z,74.50
2018-08-29T02:52:10.345Z,74.60
2018-08-29T02:57:39.737Z,74.60
2018-08-29T03:03:09.057Z,74.80
2018-08-29T03:08:45.822Z,75.00
2018-08-29T03:14:15.086Z,75.20
2018-08-29T03:19:45.122Z,75.10
2018-08-29T03:25:14.357Z,75.60
2018-08-29T03:30:43.608Z,75.70
2018-08-29T03:36:12.841Z,75.90
2018-08-29T03:41:42.187Z,76.50
2018-08-29T03:47:12.369Z,76.20
2018-08-29T03:52:42.771Z,76.30
2018-08-29T03:58:12.137Z,76.50
2018-08-29T04:03:41.452Z,76.50
2018-08-29T04:09:11.475Z,76.60
2018-08-29T04:14:40.732Z,76.70
2018-08-29T04:20:10.924Z,76.80
2018-08-29T04:25:40.281Z,76.70
2018-08-29T04:31:09.672Z,76.80
2018-08-29T04:36:39.156Z,76.90
2018-08-29T04:42:08.575Z,77.00
2018-08-29T04:47:38.158Z,77.10
2018-08-29T04:53:07.823Z,77.20
2018-08-29T04:58:37.179Z,77.20
2018-08-29T05:04:06.589Z,77.20
2018-08-29T05:09:35.980Z,77.30
2018-08-29T05:15:05.892Z,77.30
2018-08-29T05:20:35.428Z,77.40
2018-08-29T05:26:04.738Z,77.40
2018-08-29T05:31:34.015Z,77.50
2018-08-29T05:37:03.403Z,77.50
2018-08-29T05:42:32.634Z,77.40
2018-08-29T05:48:02.122Z,77.50
2018-08-29T05:53:31.263Z,77.20
2018-08-29T05:59:00.472Z,77.10
2018-08-29T06:04:29.654Z,76.90
2018-08-29T06:09:59.204Z,76.80
2018-08-29T06:15:28.359Z,76.60
2018-08-29T06:20:57.578Z,76.50
2018-08-29T06:26:26.759Z,76.10
2018-08-29T06:31:55.987Z,75.70
2018-08-29T06:37:25.235Z,75.40
2018-08-29T06:42:54.522Z,75.10
2018-08-29T06:48:23.758Z,75.00
2018-08-29T06:53:52.996Z,74.80
2018-08-29T06:59:23.351Z,74.00
2018-08-29T07:04:52.623Z,73.70
2018-08-29T07:10:21.819Z,73.50
2018-08-29T07:15:51.038Z,73.20
2018-08-29T07:21:20.324Z,72.70
2018-08-29T07:26:49.575Z,72.50
2018-08-29T07:32:18.777Z,71.90
2018-08-29T07:37:48.104Z,71.30
2018-08-29T07:43:17.351Z,70.60
2018-08-29T07:48:46.560Z,70.50
2018-08-29T07:54:15.826Z,69.60
2018-08-29T07:59:45.052Z,68.70
2018-08-29T08:05:14.254Z,68.80
2018-08-29T08:10:43.484Z,68.10
2018-08-29T08:16:12.878Z,67.80
2018-08-29T08:21:42.173Z,67.60
2018-08-29T08:27:11.435Z,67.30
2018-08-29T08:32:40.854Z,66.80
2018-08-29T08:38:10.223Z,66.50
2018-08-29T08:43:39.917Z,66.40
2018-08-29T08:49:09.642Z,65.60
2018-08-29T08:54:38.864Z,65.00
2018-08-29T09:00:08.491Z,64.90
2018-08-29T09:05:37.801Z,63.90
2018-08-29T09:11:07.131Z,63.60
2018-08-29T09:16:36.513Z,62.90
2018-08-29T09:22:06.043Z,63.40
2018-08-29T09:27:35.417Z,62.50
2018-08-29T09:33:05.344Z,62.40
2018-08-29T09:38:34.635Z,62.20
2018-08-29T09:44:04.099Z,61.60
2018-08-29T09:49:33.368Z,61.30
2018-08-29T09:55:02.624Z,61.30
2018-08-29T10:00:37.175Z,61.60
2018-08-29T10:06:06.656Z,60.00
2018-08-29T10:11:36.408Z,59.80
2018-08-29T10:17:05.815Z,59.40
2018-08-29T10:22:35.142Z,59.50
2018-08-29T10:28:04.481Z,59.70
2018-08-29T10:33:33.788Z,59.40
2018-08-29T10:39:03.122Z,58.70
2018-08-29T10:44:32.327Z,58.90
2018-08-29T10:50:01.561Z,58.70
2018-08-29T10:55:30.959Z,57.70
2018-08-29T11:01:00.188Z,58.00
2018-08-29T11:06:29.404Z,57.60
2018-08-29T11:12:04.901Z,56.80
2018-08-29T11:17:34.167Z,56.10
2018-08-29T11:23:03.519Z,55.00
2018-08-29T11:28:32.960Z,54.30
2018-08-29T11:34:02.639Z,53.60
2018-08-29T11:39:31.852Z,52.80
2018-08-29T11:45:01.098Z,52.00
2018-08-29T11:50:30.746Z,51.40
2018-08-29T11:56:00.209Z,49.10
2018-08-29T12:01:29.455Z,48.50
2018-08-29T12:06:58.724Z,48.00
2018-08-29T12:12:28.036Z,47.00
2018-08-29T12:17:58.057Z,46.50
2018-08-29T12:23:27.695Z,46.80
2018-08-29T12:28:57.056Z,46.10
2018-08-29T12:34:26.664Z,45.30
2018-08-29T12:39:55.974Z,44.90
2018-08-29T12:45:25.325Z,44.60
2018-08-29T12:50:54.600Z,45.30
2018-08-29T12:56:23.901Z,43.60
2018-08-29T13:01:53.087Z,43.50
2018-08-29T13:07:23.314Z,43.20
2018-08-29T13:12:52.537Z,42.70
2018-08-29T13:18:21.759Z,43.30
2018-08-29T13:23:51.064Z,42.90
2018-08-29T13:29:20.275Z,42.00
2018-08-29T13:34:49.530Z,42.10
2018-08-29T13:40:18.752Z,41.60
2018-08-29T13:45:48.032Z,41.40
2018-08-29T13:51:17.284Z,41.90
2018-08-29T13:56:46.527Z,41.80
2018-08-29T14:02:15.785Z,38.50
2018-08-29T14:07:45.041Z,37.30
2018-08-29T14:13:14.544Z,34.60
2018-08-29T14:18:43.790Z,32.30
2018-08-29T14:24:13.060Z,30.60
2018-08-29T14:29:42.384Z,29.10
2018-08-29T14:35:11.820Z,27.90
2018-08-29T14:40:41.095Z,27.70
2018-08-29T14:46:10.350Z,28.40
2018-08-29T14:51:39.652Z,28.40
2018-08-29T14:57:09.051Z,28.20
2018-08-29T15:04:50.876Z,27.10
2018-08-29T15:10:20.078Z,29.50
2018-08-29T15:15:50.542Z,33.20
2018-08-29T15:21:19.764Z,35.20
2018-08-29T15:26:49.144Z,36.90
2018-08-29T15:32:18.391Z,38.20
2018-08-29T15:37:47.631Z,38.50
2018-08-29T15:43:17.655Z,40.00
2018-08-29T15:48:47.343Z,41.10
2018-08-29T15:54:17.255Z,41.20
2018-08-29T15:59:46.495Z,42.10
2018-08-29T16:05:15.781Z,42.70
2018-08-29T16:10:45.115Z,44.10
2018-08-29T16:16:14.368Z,44.00
2018-08-29T16:21:43.752Z,44.60
2018-08-29T16:27:13.211Z,44.70
2018-08-29T16:32:42.758Z,44.70
2018-08-29T16:38:12.990Z,45.10
2018-08-29T16:43:42.852Z,45.00
2018-08-29T16:49:13.267Z,45.20
2018-08-29T16:54:43.024Z,45.90
2018-08-29T17:00:12.588Z,46.20
2018-08-29T17:05:42.324Z,46.50
2018-08-29T17:11:11.749Z,46.60
2018-08-29T17:16:41.480Z,48.70
2018-08-29T17:22:11.637Z,49.90
2018-08-29T17:27:41.044Z,50.80
2018-08-29T17:33:10.363Z,51.60
2018-08-29T17:38:39.849Z,51.90
2018-08-29T17:44:09.135Z,52.30
2018-08-29T17:49:38.641Z,52.60
2018-08-29T17:55:07.916Z,53.30
2018-08-29T18:00:37.439Z,53.70
2018-08-29T18:06:07.031Z,54.30
2018-08-29T18:11:36.392Z,54.90
2018-08-29T18:17:07.288Z,55.40
2018-08-29T18:22:36.878Z,56.00
2018-08-29T18:28:06.170Z,56.50
2018-08-29T18:33:35.641Z,57.00
2018-08-29T18:39:06.263Z,57.40
2018-08-29T18:44:36.677Z,57.60
2018-08-29T18:50:07.303Z,58.10
2018-08-29T18:55:36.656Z,58.20
2018-08-29T19:01:06.277Z,58.70
2018-08-29T19:06:36.525Z,58.70
2018-08-29T19:12:05.924Z,58.90
2018-08-29T19:17:35.496Z,59.80
2018-08-29T19:23:04.792Z,59.50
2018-08-29T19:28:34.144Z,59.80
2018-08-29T19:34:03.942Z,60.20
2018-08-29T19:39:34.233Z,61.80
2018-08-29T19:45:03.765Z,66.40
2018-08-29T19:50:33.000Z,69.70
2018-08-29T19:56:02.304Z,71.10
2018-08-29T20:01:31.712Z,73.50
2018-08-29T20:07:01.030Z,74.90
2018-08-29T20:12:30.399Z,76.90
2018-08-29T20:17:59.591Z,78.40
2018-08-29T20:23:28.923Z,78.90
2018-08-29T20:28:58.212Z,79.30
2018-08-29T20:34:27.628Z,79.00
2018-08-29T20:39:56.912Z,81.50
2018-08-29T20:45:27.229Z,80.90
2018-08-29T20:50:56.536Z,80.40
2018-08-29T20:56:26.079Z,80.90
2018-08-29T21:01:55.324Z,81.30
2018-08-29T21:07:24.651Z,81.40
2018-08-29T21:12:53.897Z,81.50
2018-08-29T21:18:23.232Z,81.80
2018-08-29T21:23:52.500Z,81.90
2018-08-29T21:31:40.393Z,82.00
2018-08-29T21:38:08.732Z,81.80
2018-08-29T21:44:23.319Z,81.50
2018-08-29T21:56:25.319Z,81.80
2018-08-29T22:04:23.854Z,81.90
2018-08-29T22:09:53.140Z,82.00
2018-08-29T22:15:25.348Z,82.30
2018-08-29T22:20:54.631Z,82.70
2018-08-29T22:26:23.916Z,82.80
2018-08-29T22:31:53.120Z,82.80
2018-08-29T22:37:22.251Z,83.00
2018-08-29T22:42:51.413Z,83.00
2018-08-29T22:48:20.720Z,82.80
2018-08-29T22:53:50.065Z,82.90
2018-08-29T22:59:19.267Z,82.80
2018-08-29T23:04:48.443Z,83.00
2018-08-29T23:10:17.600Z,83.00
2018-08-29T23:15:46.900Z,83.10
2018-08-29T23:21:16.136Z,83.10
2018-08-29T23:26:45.325Z,84.00
2018-08-29T23:32:14.572Z,83.40
2018-08-29T23:37:44.775Z,83.40
2018-08-29T23:43:14.011Z,83.30
2018-08-29T23:48:43.311Z,83.60
2018-08-29T23:54:12.635Z,83.90
2018-08-29T23:59:41.886Z,83.90
